createdAt,value
2018-09-11T00:03:14.298Z,100449.04
2018-09-11T00:07:17.901Z,100455.34
2018-09-11T00:11:21.672Z,100465.25
2018-09-11T00:15:25.146Z,100451.98
2018-09-11T00:19:28.762Z,100449.86
2018-09-11T00:23:32.419Z,100446.39
2018-09-11T00:27:35.979Z,100456.62
2018-09-11T00:31:39.671Z,100473.06
2018-09-11T00:35:43.484Z,100467.71
2018-09-11T00:39:47.102Z,100469.16
2018-09-11T00:43:50.668Z,100471.00
2018-09-11T00:47:55.051Z,100479.93
2018-09-11T00:51:58.771Z,100474.22
2018-09-11T00:56:02.534Z,100474.69
2018-09-11T01:00:07.114Z,100484.05
2018-09-11T01:04:10.707Z,100475.62
2018-09-11T01:08:14.298Z,100477.87
2018-09-11T01:12:17.985Z,100484.95
2018-09-11T01:16:21.639Z,100488.56
2018-09-11T01:20:25.275Z,100483.22
2018-09-11T01:24:28.816Z,100484.99
2018-09-11T01:28:32.535Z,100490.34
2018-09-11T01:32:36.194Z,100487.67
2018-09-11T01:36:39.919Z,100492.58
2018-09-11T01:40:43.666Z,100485.89
2018-09-11T01:44:47.188Z,100490.34
2018-09-11T01:48:50.728Z,100484.59
2018-09-11T01:52:54.598Z,100484.63
2018-09-11T01:56:58.247Z,100487.34
2018-09-11T02:01:02.045Z,100486.91
2018-09-11T02:05:05.693Z,100485.67
2018-09-11T02:09:11.478Z,100484.41
2018-09-11T02:13:15.131Z,100476.45
2018-09-11T02:17:18.724Z,100481.47
2018-09-11T02:21:22.311Z,100485.05
2018-09-11T02:25:25.954Z,100498.05
2018-09-11T02:29:29.510Z,100488.30
2018-09-11T02:33:33.142Z,100491.47
2018-09-11T02:37:36.771Z,100494.14
2018-09-11T02:41:40.383Z,100494.14
2018-09-11T02:45:44.186Z,100507.98
2018-09-11T02:49:47.834Z,100505.30
2018-09-11T02:53:51.526Z,100505.41
2018-09-11T02:57:55.270Z,100504.07
2018-09-11T03:01:58.881Z,100503.23
2018-09-11T03:06:03.180Z,100495.19
2018-09-11T03:10:07.015Z,100494.25
2018-09-11T03:14:10.710Z,100490.64
2018-09-11T03:18:14.213Z,100492.88
2018-09-11T03:22:17.882Z,100492.88
2018-09-11T03:26:21.780Z,100483.12
2018-09-11T03:30:25.351Z,100494.25
2018-09-11T03:34:28.894Z,100492.51
2018-09-11T03:38:32.567Z,100490.27
2018-09-11T03:42:36.142Z,100501.53
2018-09-11T03:46:39.662Z,100506.94
2018-09-11T03:50:43.217Z,100510.48
2018-09-11T03:54:46.841Z,100510.95
2018-09-11T03:58:50.471Z,100512.75
2018-09-11T04:02:54.089Z,100514.13
2018-09-11T04:06:57.761Z,100521.73
2018-09-11T04:11:01.789Z,100515.96
2018-09-11T04:15:05.731Z,100525.81
2018-09-11T04:19:09.624Z,100525.41
2018-09-11T04:23:13.501Z,100529.45
2018-09-11T04:27:17.099Z,100524.14
2018-09-11T04:31:20.966Z,100514.84
2018-09-11T04:35:24.469Z,100514.87
2018-09-11T04:39:28.233Z,100521.56
2018-09-11T04:43:31.923Z,100520.22
2018-09-11T04:47:35.495Z,100515.37
2018-09-11T04:51:39.206Z,100519.36
2018-09-11T04:55:42.832Z,100524.23
2018-09-11T04:59:46.598Z,100525.16
2018-09-11T05:03:50.175Z,100535.39
2018-09-11T05:07:53.761Z,100534.08
2018-09-11T05:11:57.251Z,100530.14
2018-09-11T05:16:00.797Z,100527.93
2018-09-11T05:20:04.303Z,100533.61
2018-09-11T05:24:08.136Z,100540.23
2018-09-11T05:28:11.757Z,100537.53
2018-09-11T05:32:15.229Z,100542.84
2018-09-11T05:36:18.834Z,100542.34
2018-09-11T05:40:22.447Z,100535.63
2018-09-11T05:44:26.095Z,100530.66
2018-09-11T05:48:29.589Z,100537.21
2018-09-11T06:00:55.780Z,100540.66
2018-09-11T06:04:59.401Z,100539.25
2018-09-11T06:09:04.936Z,100547.05
2018-09-11T06:13:08.494Z,100555.33
2018-09-11T06:17:12.012Z,100549.84
2018-09-11T06:21:15.715Z,100551.45
2018-09-11T06:25:19.247Z,100555.80
2018-09-11T06:29:22.804Z,100555.52
2018-09-11T06:33:26.518Z,100560.55
2018-09-11T06:37:30.167Z,100556.72
2018-09-11T06:41:33.926Z,100555.16
2018-09-11T06:45:37.518Z,100552.69
2018-09-11T06:49:41.089Z,100557.46
2018-09-11T06:53:44.815Z,100564.00
2018-09-11T06:57:48.397Z,100571.92
2018-09-11T07:01:51.991Z,100576.22
2018-09-11T07:05:55.566Z,100575.13
2018-09-11T07:09:59.359Z,100575.40
2018-09-11T07:14:03.187Z,100574.81
2018-09-11T07:18:07.176Z,100576.81
2018-09-11T07:22:10.845Z,100577.48
2018-09-11T07:26:15.159Z,100582.24
2018-09-11T07:30:18.758Z,100577.98
2018-09-11T07:34:22.299Z,100575.48
2018-09-11T07:38:25.722Z,100580.48
2018-09-11T07:42:29.251Z,100584.75
2018-09-11T07:46:32.970Z,100589.78
2018-09-11T07:50:36.551Z,100595.26
2018-09-11T07:54:40.118Z,100599.71
2018-09-11T07:58:44.010Z,100602.42
2018-09-11T08:02:47.504Z,100598.81
2018-09-11T08:06:51.343Z,100598.02
2018-09-11T08:10:54.896Z,100598.07
2018-09-11T08:14:58.491Z,100588.18
2018-09-11T08:19:01.946Z,100594.46
2018-09-11T08:23:05.412Z,100592.18
2018-09-11T08:27:08.934Z,100593.89
2018-09-11T08:31:12.394Z,100601.39
2018-09-11T08:35:15.916Z,100602.84
2018-09-11T08:39:19.555Z,100609.80
2018-09-11T08:43:23.059Z,100604.33
2018-09-11T08:47:26.675Z,100600.71
2018-09-11T08:51:30.388Z,100602.14
2018-09-11T08:55:34.034Z,100611.42
2018-09-11T08:59:37.517Z,100606.87
2018-09-11T09:03:41.094Z,100607.38
2018-09-11T09:07:45.182Z,100604.77
2018-09-11T09:11:48.722Z,100601.97
2018-09-11T09:15:52.715Z,100600.03
2018-09-11T09:19:56.352Z,100597.16
2018-09-11T09:23:59.963Z,100591.62
2018-09-11T09:28:03.499Z,100588.92
2018-09-11T09:32:07.292Z,100592.95
2018-09-11T09:36:10.909Z,100591.11
2018-09-11T09:40:14.441Z,100584.41
2018-09-11T09:44:18.010Z,100592.69
2018-09-11T09:48:21.436Z,100588.71
2018-09-11T09:52:25.196Z,100584.63
2018-09-11T09:56:28.772Z,100587.84
2018-09-11T10:00:37.578Z,100584.55
2018-09-11T10:04:42.317Z,100589.04
2018-09-11T10:08:45.858Z,100583.81
2018-09-11T10:12:49.330Z,100581.34
2018-09-11T10:16:52.968Z,100585.25
2018-09-11T10:20:56.514Z,100576.79
2018-09-11T10:25:00.096Z,100582.05
2018-09-11T10:29:03.680Z,100577.45
2018-09-11T10:33:07.411Z,100579.45
2018-09-11T10:37:10.959Z,100570.73
2018-09-11T10:41:14.516Z,100559.81
2018-09-11T10:45:17.999Z,100559.59
2018-09-11T10:49:21.752Z,100551.09
2018-09-11T10:53:25.348Z,100552.59
2018-09-11T10:57:29.343Z,100549.47
2018-09-11T11:01:33.037Z,100547.40
2018-09-11T11:05:36.803Z,100539.97
2018-09-11T11:09:40.242Z,100525.70
2018-09-11T11:13:44.882Z,100528.09
2018-09-11T11:17:48.431Z,100526.21
2018-09-11T11:21:52.204Z,100527.80
2018-09-11T11:25:55.789Z,100524.13
2018-09-11T11:29:59.496Z,100523.02
2018-09-11T11:34:03.050Z,100523.00
2018-09-11T11:38:06.782Z,100516.73
2018-09-11T11:42:10.629Z,100514.02
2018-09-11T11:46:14.217Z,100506.48
2018-09-11T11:50:17.819Z,100495.77
2018-09-11T11:54:21.388Z,100499.00
2018-09-11T11:58:25.063Z,100497.88
2018-09-11T12:02:28.509Z,100496.16
2018-09-11T12:06:32.286Z,100491.66
2018-09-11T12:10:36.095Z,100487.60
2018-09-11T12:14:39.700Z,100480.54
2018-09-11T12:18:43.371Z,100474.26
2018-09-11T12:22:47.131Z,100474.20
2018-09-11T12:26:50.708Z,100475.83
2018-09-11T12:30:54.147Z,100472.91
2018-09-11T12:34:57.852Z,100478.15
2018-09-11T12:39:01.338Z,100460.94
2018-09-11T12:43:04.992Z,100458.42
2018-09-11T12:47:09.583Z,100452.52
2018-09-11T12:51:12.998Z,100444.30
2018-09-11T12:55:16.547Z,100443.63
2018-09-11T12:59:20.079Z,100445.56
2018-09-11T13:03:23.785Z,100442.95
2018-09-11T13:07:27.333Z,100443.54
2018-09-11T13:11:30.843Z,100435.31
2018-09-11T13:15:34.341Z,100438.13
2018-09-11T13:19:37.866Z,100431.34
2018-09-11T13:23:42.517Z,100436.49
2018-09-11T13:27:46.006Z,100426.69
2018-09-11T13:31:49.522Z,100421.85
2018-09-11T13:35:53.035Z,100419.81
2018-09-11T13:39:56.595Z,100419.91
2018-09-11T13:44:00.201Z,100417.59
2018-09-11T13:48:03.767Z,100420.25
2018-09-11T13:52:10.071Z,100422.16
2018-09-11T13:56:14.060Z,100421.88
2018-09-11T14:00:17.682Z,100426.61
2018-09-11T14:04:21.355Z,100426.10
2018-09-11T14:08:25.013Z,100431.50
2018-09-11T14:12:28.596Z,100427.30
2018-09-11T14:16:32.362Z,100417.45
2018-09-11T14:20:36.230Z,100416.08
2018-09-11T14:24:39.929Z,100413.55
2018-09-11T14:28:43.627Z,100424.55
2018-09-11T14:32:47.576Z,100429.95
2018-09-11T14:36:52.265Z,100423.56
2018-09-11T14:40:55.915Z,100427.39
2018-09-11T14:44:59.381Z,100423.30
2018-09-11T14:49:03.124Z,100421.31
2018-09-11T14:53:06.722Z,100416.81
2018-09-11T14:57:10.542Z,100411.38
2018-09-11T15:01:14.399Z,100415.59
2018-09-11T15:05:17.967Z,100419.57
2018-09-11T15:09:21.528Z,100414.36
2018-09-11T15:13:25.013Z,100412.69
2018-09-11T15:17:28.510Z,100406.91
2018-09-11T15:21:32.322Z,100409.20
2018-09-11T15:25:35.882Z,100411.99
2018-09-11T15:29:39.735Z,100413.43
2018-09-11T15:33:43.344Z,100408.02
2018-09-11T15:37:47.057Z,100409.54
2018-09-11T15:41:50.707Z,100416.09
2018-09-11T15:45:54.207Z,100418.18
2018-09-11T15:49:57.702Z,100418.34
2018-09-11T15:54:03.066Z,100416.30
2018-09-11T15:58:06.665Z,100411.55
2018-09-11T16:02:10.195Z,100409.41
2018-09-11T16:06:13.692Z,100402.90
2018-09-11T16:10:17.264Z,100411.66
2018-09-11T16:14:20.774Z,100414.49
2018-09-11T16:18:24.315Z,100408.88
2018-09-11T16:22:28.102Z,100405.17
2018-09-11T16:26:32.443Z,100409.96
2018-09-11T16:30:35.981Z,100402.17
2018-09-11T16:34:39.591Z,100402.90
2018-09-11T16:38:43.301Z,100400.06
2018-09-11T16:42:50.083Z,100390.06
2018-09-11T16:46:53.907Z,100392.92
2018-09-11T16:50:57.754Z,100396.34
2018-09-11T16:55:01.399Z,100400.55
2018-09-11T16:59:05.154Z,100399.14
2018-09-11T17:03:08.814Z,100398.50
2018-09-11T17:07:12.727Z,100400.01
2018-09-11T17:11:16.373Z,100408.42
2018-09-11T17:15:19.952Z,100403.33
2018-09-11T17:19:23.478Z,100404.03
2018-09-11T17:23:27.178Z,100410.70
2018-09-11T17:27:30.750Z,100417.72
2018-09-11T17:31:34.393Z,100418.42
2018-09-11T17:35:38.097Z,100420.41
2018-09-11T17:39:41.913Z,100419.84
2018-09-11T17:43:45.563Z,100422.05
2018-09-11T17:47:50.263Z,100428.77
2018-09-11T17:51:53.954Z,100438.47
2018-09-11T17:55:57.486Z,100440.92
2018-09-11T18:00:01.440Z,100448.44
2018-09-11T18:04:05.567Z,100454.22
2018-09-11T18:08:09.248Z,100452.59
2018-09-11T18:12:12.787Z,100451.80
2018-09-11T18:16:16.389Z,100461.86
2018-09-11T18:20:19.970Z,100469.84
2018-09-11T18:24:24.673Z,100480.44
2018-09-11T18:28:28.654Z,100478.44
2018-09-11T18:32:32.214Z,100475.46
2018-09-11T18:36:35.865Z,100490.58
2018-09-11T18:40:39.759Z,100487.70
2018-09-11T18:44:44.273Z,100488.97
2018-09-11T18:48:47.731Z,100493.27
2018-09-11T18:52:51.315Z,100492.28
2018-09-11T18:56:54.905Z,100492.16
2018-09-11T19:00:58.478Z,100498.22
2018-09-11T19:05:02.543Z,100502.03
2018-09-11T19:09:09.077Z,100502.25
2018-09-11T19:13:12.710Z,100499.33
2018-09-11T19:17:17.341Z,100497.79
2018-09-11T19:21:20.982Z,100500.28
2018-09-11T19:25:24.900Z,100496.43
2018-09-11T19:29:30.234Z,100489.09
2018-09-11T19:33:34.390Z,100496.36
2018-09-11T19:37:38.431Z,100502.70
2018-09-11T19:41:42.588Z,100509.99
2018-09-11T19:45:47.582Z,100512.86
2018-09-11T19:49:51.598Z,100516.60
2018-09-11T19:53:55.117Z,100519.50
2018-09-11T19:57:58.988Z,100515.65
2018-09-11T20:02:03.221Z,100512.33
2018-09-11T20:06:07.933Z,100516.03
2018-09-11T20:10:11.670Z,100511.31
2018-09-11T20:14:15.232Z,100517.67
2018-09-11T20:18:18.950Z,100524.19
2018-09-11T20:22:22.406Z,100518.59
2018-09-11T20:26:26.423Z,100518.37
2018-09-11T20:30:31.139Z,100520.75
2018-09-11T20:34:35.258Z,100519.61
2018-09-11T20:38:38.799Z,100522.41
2018-09-11T20:42:42.519Z,100527.91
2018-09-11T20:46:46.192Z,100530.73
2018-09-11T20:50:49.819Z,100538.52
2018-09-11T20:54:53.736Z,100546.30
2018-09-11T20:58:57.243Z,100555.53
2018-09-11T21:03:00.729Z,100560.64
2018-09-11T21:07:04.273Z,100569.00
2018-09-11T21:11:08.043Z,100573.24
2018-09-11T21:15:11.465Z,100575.64
2018-09-11T21:19:15.082Z,100575.41
2018-09-11T21:23:18.616Z,100575.56
2018-09-11T21:27:22.116Z,100586.64
2018-09-11T21:31:25.539Z,100582.42
2018-09-11T21:35:28.994Z,100588.95
2018-09-11T21:39:32.466Z,100585.70
2018-09-11T21:43:35.911Z,100586.84
2018-09-11T21:47:39.714Z,100590.23
2018-09-11T21:51:43.204Z,100597.14
2018-09-11T21:55:46.757Z,100600.04
2018-09-11T21:59:50.439Z,100597.15
2018-09-11T22:03:55.115Z,100597.38
2018-09-11T22:07:58.788Z,100592.63
2018-09-11T22:12:02.436Z,100592.80
2018-09-11T22:16:05.938Z,100596.48
2018-09-11T22:20:09.711Z,100599.77
2018-09-11T22:24:13.213Z,100602.05
2018-09-11T22:28:16.715Z,100596.34
2018-09-11T22:32:20.295Z,100588.01
2018-09-11T22:36:24.124Z,100590.82
2018-09-11T22:40:27.868Z,100592.23
2018-09-11T22:44:31.482Z,100592.84
2018-09-11T22:48:35.119Z,100590.80
2018-09-11T22:52:38.769Z,100591.36
2018-09-11T22:56:42.411Z,100596.84
2018-09-11T23:00:45.963Z,100593.42
2018-09-11T23:04:49.587Z,100595.83
2018-09-11T23:08:53.356Z,100595.95
2018-09-11T23:12:56.964Z,100592.57
2018-09-11T23:17:00.433Z,100594.50
2018-09-11T23:21:05.647Z,100596.83
2018-09-11T23:25:09.386Z,100592.42
2018-09-11T23:29:12.794Z,100589.46
2018-09-11T23:33:17.470Z,100589.18
2018-09-11T23:37:20.943Z,100593.75
2018-09-11T23:41:24.540Z,100598.31
2018-09-11T23:45:28.957Z,100598.03
2018-09-11T23:49:32.483Z,100601.41
2018-09-11T23:53:36.034Z,100598.09
2018-09-11T23:57:39.519Z,100604.09
